Time;durP1;ratioP1;P1;durP2;ratioP2;P2;SDS_P1;SDS_P2;PMS_P1;PMS_P2;Temp;Humidity;BMP_temperature;BMP_pressure;BME280_temperature;BME280_humidity;BME280_pressure;Samples;Min_cycle;Max_cycle;Signal;HPM_P1;HPM_P2
2023/09/06 00:00:45;;;;;;;;;;;16.60;55.80;;;;;;6279780;22;20003;-74
2023/09/06 00:03:12;;;;;;;;;;;16.70;56.90;;;;;;6307303;22;19956;-75
2023/09/06 00:05:43;;;;;;;14.77;2.20;;;16.70;56.40;;;;;;6306817;22;20318;-76
2023/09/06 00:08:12;;;;;;;10.90;2.20;;;16.70;55.60;;;;;;6306495;22;20006;-75
2023/09/06 00:10:40;;;;;;;11.48;2.83;;;16.90;56.00;;;;;;6305843;22;20011;-75
2023/09/06 00:13:07;;;;;;;10.95;2.75;;;16.90;56.40;;;;;;6306103;22;20030;-75
2023/09/06 00:15:35;;;;;;;8.80;2.00;;;17.00;55.30;;;;;;6279101;22;20006;-75
2023/09/06 00:18:05;;;;;;;10.02;1.90;;;17.00;55.30;;;;;;6279510;22;20009;-75
2023/09/06 00:20:36;;;;;;;8.98;1.98;;;17.00;55.20;;;;;;6306448;22;19995;-75
2023/09/06 00:23:09;;;;;;;15.18;2.10;;;17.00;55.60;;;;;;6280158;22;20073;-75
2023/09/06 00:25:36;;;;;;;6.90;1.77;;;17.10;55.70;;;;;;6306181;22;20057;-75
2023/09/06 00:28:04;;;;;;;6.35;1.50;;;17.20;54.40;;;;;;6279681;22;20461;-75
2023/09/06 00:30:32;;;;;;;11.48;2.00;;;17.20;53.80;;;;;;6306725;22;20007;-75
2023/09/06 00:32:59;;;;;;;2.97;1.30;;;17.20;54.40;;;;;;6306460;22;20339;-75
2023/09/06 00:35:27;;;;;;;12.82;1.98;;;17.20;53.80;;;;;;6306181;22;20006;-75
2023/09/06 00:37:54;;;;;;;4.85;1.23;;;17.20;55.10;;;;;;6279486;22;20376;-77
2023/09/06 00:40:22;;;;;;;7.45;1.60;;;17.20;54.20;;;;;;6306219;22;20011;-75
2023/09/06 00:42:52;;;;;;;11.15;1.90;;;17.30;53.60;;;;;;6280517;22;19999;-75
2023/09/06 00:45:26;;;;;;;8.65;1.80;;;17.30;54.20;;;;;;6308369;22;20003;-77
2023/09/06 00:47:55;;;;;;;7.22;1.45;;;17.30;53.90;;;;;;6308568;22;20330;-75
2023/09/06 00:50:22;;;;;;;10.05;2.05;;;17.40;53.70;;;;;;6308420;22;20007;-75
2023/09/06 00:52:50;;;;;;;6.43;1.80;;;17.40;55.30;;;;;;6308130;22;20441;-75
2023/09/06 00:55:18;;;;;;;9.80;2.35;;;17.40;54.20;;;;;;6256094;22;20025;-75
2023/09/06 00:57:46;;;;;;;9.93;2.05;;;17.50;54.20;;;;;;6308628;22;20007;-75
2023/09/06 01:00:19;;;;;;;6.05;1.50;;;17.50;54.30;;;;;;6281072;22;20007;-75
2023/09/06 01:02:47;;;;;;;13.32;2.45;;;17.50;53.00;;;;;;6308276;22;19999;-76
2023/09/06 01:05:18;;;;;;;7.10;2.00;;;17.60;53.90;;;;;;6307327;22;20002;-75
2023/09/06 01:07:51;;;;;;;27.17;3.10;;;17.60;53.20;;;;;;6308214;22;20007;-77
2023/09/06 01:10:19;;;;;;;23.45;3.08;;;17.70;54.20;;;;;;6281665;22;20071;-75
2023/09/06 01:12:47;;;;;;;11.00;1.88;;;17.70;53.20;;;;;;6308097;22;20003;-76
2023/09/06 01:15:14;;;;;;;9.13;2.10;;;17.70;52.40;;;;;;6308302;22;20011;-75
2023/09/06 01:17:42;;;;;;;8.00;2.20;;;17.80;53.50;;;;;;6308401;22;20007;-75
2023/09/06 01:20:19;;;;;;;14.80;2.30;;;17.80;53.80;;;;;;6281180;22;20038;-76
2023/09/06 01:23:07;;;;;;;12.32;2.08;;;17.80;53.70;;;;;;6280848;22;20018;-76
2023/09/06 01:25:34;;;;;;;13.73;1.92;;;17.80;53.40;;;;;;6258774;22;20027;-75
2023/09/06 01:28:01;;;;;;;11.75;2.10;;;17.80;52.50;;;;;;6281018;22;20083;-76
2023/09/06 01:30:31;;;;;;;9.98;1.92;;;17.90;53.20;;;;;;6280547;22;19999;-75
2023/09/06 01:32:58;;;;;;;;;;;18.00;53.70;;;;;;6308557;22;20013;-75
2023/09/06 01:35:25;;;;;;;18.33;3.03;;;18.00;53.10;;;;;;6307658;22;20287;-76
2023/09/06 01:37:52;;;;;;;6.78;2.03;;;18.00;53.60;;;;;;6308041;22;19999;-76
2023/09/06 01:40:21;;;;;;;9.77;2.03;;;18.10;52.80;;;;;;6307467;22;20373;-76
2023/09/06 01:42:48;;;;;;;8.23;1.80;;;18.10;52.10;;;;;;6307631;22;20422;-77
2023/09/06 01:45:17;;;;;;;12.00;2.22;;;18.20;52.40;;;;;;6280773;22;20007;-77
2023/09/06 01:47:48;;;;;;;6.70;2.15;;;18.20;52.60;;;;;;6307873;22;20026;-77
2023/09/06 01:50:21;;;;;;;10.73;1.80;;;18.10;52.50;;;;;;6255832;22;20334;-77
2023/09/06 01:52:48;;;;;;;9.07;1.95;;;18.20;52.40;;;;;;6281578;22;20086;-77
2023/09/06 01:55:15;;;;;;;11.95;1.90;;;18.20;51.60;;;;;;6280983;22;20007;-77
2023/09/06 01:57:43;;;;;;;8.15;1.60;;;18.20;51.30;;;;;;6308049;22;20006;-77
2023/09/06 02:02:47;;;;;;;13.10;2.45;;;18.20;52.90;;;;;;6307706;22;20053;-77
2023/09/06 02:05:14;;;;;;;10.43;2.22;;;18.20;53.50;;;;;;6307505;22;20069;-77
2023/09/06 02:07:42;;;;;;;4.82;2.20;;;18.30;52.80;;;;;;6307780;22;19995;-77
2023/09/06 02:10:10;;;;;;;11.63;2.38;;;18.30;53.00;;;;;;6280644;22;20003;-77
2023/09/06 02:12:38;;;;;;;7.85;2.53;;;18.30;52.80;;;;;;6307665;22;20008;-76
2023/09/06 02:15:06;;;;;;;7.00;2.40;;;18.30;53.00;;;;;;6280451;22;20064;-76
2023/09/06 02:17:33;;;;;;;13.32;2.67;;;18.30;53.30;;;;;;6306807;22;20015;-76
2023/09/06 02:20:12;;;;;;;13.25;2.38;;;18.30;52.40;;;;;;6307743;22;20007;-77
2023/09/06 02:22:43;;;;;;;9.35;2.65;;;18.30;52.80;;;;;;6307440;22;20049;-77
2023/09/06 02:25:10;;;;;;;16.33;2.50;;;18.30;52.80;;;;;;6307633;22;19995;-77
2023/09/06 02:27:37;;;;;;;15.27;2.55;;;18.30;54.00;;;;;;6254712;22;20031;-77
2023/09/06 02:30:06;;;;;;;12.95;2.50;;;18.40;55.20;;;;;;6307115;22;20003;-77
2023/09/06 02:32:34;;;;;;;7.80;2.08;;;18.30;54.40;;;;;;6280124;22;20011;-77
2023/09/06 02:35:01;;;;;;;6.60;2.03;;;18.30;53.90;;;;;;6280081;22;20370;-77
2023/09/06 02:37:28;;;;;;;9.20;2.50;;;18.30;54.20;;;;;;6255073;22;20000;-77
2023/09/06 02:39:56;;;;;;;11.32;2.33;;;18.30;54.50;;;;;;6308672;22;20338;-77
2023/09/06 02:42:23;;;;;;;9.70;2.10;;;18.30;54.60;;;;;;6307285;22;20011;-77
2023/09/06 02:44:51;;;;;;;12.55;2.60;;;18.30;54.90;;;;;;6307159;22;20002;-77
2023/09/06 02:47:25;;;;;;;4.63;1.80;;;18.30;55.00;;;;;;6307198;22;20006;-77
2023/09/06 02:49:55;;;;;;;8.63;2.20;;;18.30;55.00;;;;;;6306814;22;20009;-76
2023/09/06 02:52:33;;;;;;;8.63;2.55;;;18.30;56.10;;;;;;6307128;22;20007;-77
2023/09/06 02:55:04;;;;;;;6.68;2.38;;;18.30;56.00;;;;;;6307577;22;20026;-77
2023/09/06 02:57:32;;;;;;;9.35;2.47;;;18.30;56.10;;;;;;6307222;22;20014;-77
2023/09/06 02:59:59;;;;;;;9.15;2.50;;;18.40;55.10;;;;;;6279709;22;19999;-77
2023/09/06 03:02:27;;;;;;;7.03;2.13;;;18.40;55.50;;;;;;6279955;22;20010;-77
2023/09/06 03:05:03;;;;;;;9.77;2.25;;;18.40;55.50;;;;;;6306686;22;20070;-77
2023/09/06 03:07:34;;;;;;;6.40;1.83;;;18.40;56.60;;;;;;6307111;22;20007;-77
2023/09/06 03:10:00;;;;;;;;;;;18.40;56.30;;;;;;6281030;22;20003;-77
2023/09/06 03:12:29;;;;;;;6.60;2.25;;;18.40;56.40;;;;;;6279353;22;20321;-77
2023/09/06 03:14:59;;;;;;;8.43;2.33;;;18.30;57.00;;;;;;6306980;22;20350;-77
2023/09/06 03:17:27;;;;;;;9.70;2.38;;;18.40;57.40;;;;;;6306703;22;20006;-77
2023/09/06 03:19:58;;;;;;;5.00;2.47;;;18.40;56.50;;;;;;6306926;22;20007;-77
2023/09/06 03:22:27;;;;;;;7.47;2.47;;;18.40;56.30;;;;;;6306783;22;20078;-77
2023/09/06 03:24:57;;;;;;;7.13;2.50;;;18.40;56.20;;;;;;6280282;22;20003;-77
2023/09/06 03:27:25;;;;;;;8.15;2.00;;;18.40;56.30;;;;;;6280876;22;19999;-77
2023/09/06 03:29:53;;;;;;;9.93;2.22;;;18.40;56.20;;;;;;6306621;22;20072;-77
2023/09/06 03:32:20;;;;;;;15.63;2.70;;;18.40;56.10;;;;;;6306823;22;20011;-77
2023/09/06 03:34:49;;;;;;;24.77;2.80;;;18.40;56.50;;;;;;6305727;22;19995;-78
2023/09/06 03:37:18;;;;;;;16.83;2.53;;;18.40;55.60;;;;;;6306477;22;20517;-81
2023/09/06 03:39:47;;;;;;;17.40;2.13;;;18.50;56.50;;;;;;6307337;22;20006;-77
2023/09/06 03:42:15;;;;;;;38.15;4.03;;;18.40;54.80;;;;;;6306225;22;20015;-77
2023/09/06 03:44:46;;;;;;;15.95;2.95;;;18.40;55.60;;;;;;6306770;22;20000;-77
2023/09/06 03:47:14;;;;;;;11.02;2.40;;;18.40;55.50;;;;;;6306681;22;20006;-77
2023/09/06 03:49:43;;;;;;;6.00;1.90;;;18.40;55.10;;;;;;6280015;22;20006;-77
2023/09/06 03:52:16;;;;;;;10.88;1.98;;;18.40;55.50;;;;;;6306392;22;20011;-76
2023/09/06 03:54:43;;;;;;;10.32;1.73;;;18.50;54.80;;;;;;6306749;22;20033;-77
2023/09/06 03:57:13;;;;;;;8.98;1.50;;;18.50;54.70;;;;;;6306890;22;20492;-77
2023/09/06 03:59:40;;;;;;;13.95;1.63;;;18.50;54.90;;;;;;6306534;22;20030;-77
2023/09/06 04:02:13;;;;;;;7.68;2.20;;;18.50;54.90;;;;;;6306606;22;20071;-77
2023/09/06 04:04:40;;;;;;;5.38;1.83;;;18.50;56.00;;;;;;6281570;22;20009;-77
2023/09/06 04:07:08;;;;;;;12.60;1.70;;;18.50;56.50;;;;;;6279603;22;20003;-77
2023/09/06 04:09:38;;;;;;;12.80;1.77;;;18.50;56.90;;;;;;6307027;22;20462;-77
2023/09/06 04:12:07;;;;;;;;;;;18.50;57.20;;;;;;6306900;22;20018;-76
2023/09/06 04:14:35;;;;;;;9.93;2.00;;;18.50;56.50;;;;;;6306531;22;20234;-76
2023/09/06 04:17:06;;;;;;;8.10;1.55;;;18.50;56.90;;;;;;6306602;22;20003;-76
2023/09/06 04:19:36;;;;;;;11.65;1.80;;;18.50;57.40;;;;;;6280041;22;20045;-77
2023/09/06 04:22:03;;;;;;;;;;;18.50;57.50;;;;;;6280061;22;19999;-76
2023/09/06 04:24:30;;;;;;;10.50;1.80;;;18.50;56.60;;;;;;6306552;22;19899;-76
2023/09/06 04:26:59;;;;;;;5.88;1.50;;;18.50;57.00;;;;;;6306277;22;20053;-76
2023/09/06 04:29:26;;;;;;;13.75;1.70;;;18.50;57.50;;;;;;6306844;22;20064;-77
2023/09/06 04:31:54;;;;;;;14.40;1.60;;;18.50;57.20;;;;;;6306616;22;20082;-77
2023/09/06 04:34:22;;;;;;;7.18;1.75;;;18.40;56.60;;;;;;6306521;22;20418;-76
2023/09/06 04:36:49;;;;;;;7.10;1.83;;;18.40;56.10;;;;;;6306448;22;20334;-76
2023/09/06 04:39:17;;;;;;;13.00;2.03;;;18.40;56.00;;;;;;6306139;22;20026;-76
2023/09/06 04:41:44;;;;;;;11.13;2.75;;;18.40;57.00;;;;;;6306454;22;19996;-77
2023/09/06 04:44:11;;;;;;;7.15;1.88;;;18.40;57.20;;;;;;6306555;22;20414;-76
2023/09/06 04:46:39;;;;;;;12.57;2.15;;;18.40;56.70;;;;;;6306483;22;20000;-77
2023/09/06 04:49:07;;;;;;;21.23;2.20;;;18.40;57.20;;;;;;6306271;22;20074;-76
2023/09/06 04:51:34;;;;;;;8.57;1.63;;;18.30;57.80;;;;;;6306541;22;20011;-76
2023/09/06 04:54:01;;;;;;;12.45;2.63;;;18.30;57.30;;;;;;6306616;22;20410;-76
2023/09/06 04:56:29;;;;;;;14.60;2.05;;;18.40;57.10;;;;;;6279249;22;20003;-77
2023/09/06 04:58:57;;;;;;;13.20;2.25;;;18.40;57.00;;;;;;6279008;22;20492;-77
2023/09/06 05:01:25;;;;;;;9.82;1.92;;;18.40;57.40;;;;;;6279821;22;20003;-76
2023/09/06 05:03:52;;;;;;;22.55;1.73;;;18.40;57.80;;;;;;6278837;22;20003;-77
2023/09/06 05:06:20;;;;;;;15.40;2.45;;;18.40;57.20;;;;;;6306440;22;20460;-77
2023/09/06 05:08:47;;;;;;;11.60;2.25;;;18.40;57.40;;;;;;6306237;22;20097;-77
2023/09/06 05:11:17;;;;;;;6.00;1.52;;;18.40;58.10;;;;;;6305848;22;20445;-77
2023/09/06 05:13:44;;;;;;;9.88;1.90;;;18.40;58.30;;;;;;6306256;22;20015;-76
2023/09/06 05:16:11;;;;;;;7.10;1.77;;;18.40;57.50;;;;;;6306428;22;20474;-77
2023/09/06 05:18:39;;;;;;;18.90;1.95;;;18.40;57.80;;;;;;6278980;22;20079;-77
2023/09/06 05:21:06;;;;;;;11.80;1.98;;;18.30;58.30;;;;;;6279224;22;20004;-77
2023/09/06 05:23:35;;;;;;;13.02;2.00;;;18.30;57.60;;;;;;6279236;22;20070;-76
2023/09/06 05:26:03;;;;;;;11.90;2.00;;;18.30;57.80;;;;;;6306092;22;20079;-76
2023/09/06 05:28:31;;;;;;;14.18;2.15;;;18.30;58.00;;;;;;6280076;22;19995;-76
2023/09/06 05:31:01;;;;;;;8.90;2.00;;;18.30;57.80;;;;;;6307953;22;20079;-77
2023/09/06 05:33:28;;;;;;;8.25;1.85;;;18.30;57.90;;;;;;6308308;22;20010;-76
2023/09/06 05:35:56;;;;;;;11.48;1.77;;;18.30;58.30;;;;;;6308342;22;20006;-77
2023/09/06 05:38:24;;;;;;;14.02;2.17;;;18.20;59.10;;;;;;6280826;22;20065;-76
2023/09/06 05:40:51;;;;;;;12.68;2.22;;;18.30;59.00;;;;;;6307656;22;20069;-76
2023/09/06 05:43:18;;;;;;;12.23;2.30;;;18.30;60.20;;;;;;6280603;22;20026;-78
2023/09/06 05:45:45;;;;;;;9.65;2.00;;;18.30;59.10;;;;;;6307399;22;19999;-77
2023/09/06 05:48:12;;;;;;;9.48;1.80;;;18.20;60.30;;;;;;6307749;22;20427;-76
2023/09/06 05:50:40;;;;;;;8.68;2.00;;;18.20;60.30;;;;;;6307050;22;20011;-75
2023/09/06 05:53:07;;;;;;;10.70;1.88;;;18.20;60.60;;;;;;6254826;22;20010;-73
2023/09/06 05:55:34;;;;;;;5.68;1.60;;;18.20;60.90;;;;;;6280333;22;20029;-76
2023/09/06 05:58:01;;;;;;;8.45;1.50;;;18.20;60.80;;;;;;6308575;22;20070;-76
2023/09/06 06:00:30;;;;;;;13.10;2.05;;;18.20;60.90;;;;;;6307564;22;20018;-76
2023/09/06 06:02:59;;;;;;;6.13;1.55;;;18.20;60.50;;;;;;6280813;22;20027;-76
2023/09/06 06:05:26;;;;;;;9.98;1.73;;;18.10;60.80;;;;;;6255726;22;19999;-76
2023/09/06 06:07:53;;;;;;;9.23;2.08;;;18.10;61.30;;;;;;6307342;22;20007;-76
2023/09/06 06:10:20;;;;;;;17.38;2.10;;;18.10;61.30;;;;;;6307502;22;20422;-76
2023/09/06 06:12:48;;;;;;;9.75;1.60;;;18.10;61.30;;;;;;6307187;22;20027;-76
2023/09/06 06:15:15;;;;;;;8.68;1.50;;;18.00;61.20;;;;;;6280025;22;20386;-76
2023/09/06 06:17:42;;;;;;;6.28;1.92;;;18.00;61.50;;;;;;6306514;22;20014;-79
2023/09/06 06:20:12;;;;;;;8.40;1.67;;;17.90;62.40;;;;;;6307095;22;20021;-77
2023/09/06 06:22:39;;;;;;;9.07;2.15;;;17.90;63.10;;;;;;6307348;22;20078;-77
2023/09/06 06:25:08;;;;;;;6.57;1.92;;;18.00;62.60;;;;;;6305431;22;20473;-77
2023/09/06 06:27:36;;;;;;;8.32;2.30;;;17.90;62.90;;;;;;6306311;22;20011;-77
2023/09/06 06:30:05;;;;;;;7.05;1.80;;;17.80;63.20;;;;;;6275764;22;20007;-77
2023/09/06 06:32:33;;;;;;;8.13;1.70;;;17.90;63.10;;;;;;6278028;22;20015;-77
2023/09/06 06:35:08;;;;;;;14.80;2.22;;;17.80;62.80;;;;;;6300992;22;20449;-77
2023/09/06 06:37:35;;;;;;;5.35;1.75;;;17.80;63.40;;;;;;6277989;22;20026;-76
2023/09/06 06:40:05;;;;;;;6.85;1.50;;;17.80;62.40;;;;;;6276202;22;20003;-77
2023/09/06 06:42:35;;;;;;;4.32;1.25;;;17.80;62.80;;;;;;6304915;22;20082;-77
2023/09/06 06:45:04;;;;;;;6.53;1.60;;;17.70;63.20;;;;;;6304532;22;20007;-76
2023/09/06 06:47:31;;;;;;;6.18;1.85;;;17.70;63.70;;;;;;6304796;22;20007;-78
2023/09/06 06:50:03;;;;;;;14.40;2.10;;;17.70;63.80;;;;;;6303537;22;20114;-77
2023/09/06 06:52:35;;;;;;;9.07;1.85;;;17.70;64.40;;;;;;6251262;22;20495;-75
2023/09/06 06:55:06;;;;;;;8.55;2.38;;;17.70;64.20;;;;;;6302378;22;20010;-75
2023/09/06 11:46:43;;;;;;;9.00;2.22;;;16.50;74.70;;;;;;6301355;22;20755;-75
2023/09/06 11:49:11;;;;;;;13.20;1.90;;;16.40;74.70;;;;;;6275424;22;20065;-74
2023/09/06 11:51:41;;;;;;;9.35;1.92;;;16.40;74.80;;;;;;6275718;22;20011;-74
2023/09/06 11:54:09;;;;;;;12.40;2.33;;;16.40;74.90;;;;;;6302118;22;20007;-74
2023/09/06 11:56:40;;;;;;;9.50;2.17;;;16.40;74.90;;;;;;6250213;22;20011;-75
2023/09/06 11:59:07;;;;;;;;;;;16.40;74.90;;;;;;6302762;22;20003;-74
2023/09/06 12:01:44;;;;;;;14.73;2.22;;;16.40;74.80;;;;;;6303569;22;19981;-73
2023/09/06 12:04:18;;;;;;;12.10;2.28;;;16.40;74.80;;;;;;6302632;22;20086;-75
2023/09/06 12:06:47;;;;;;;13.45;2.30;;;16.40;74.70;;;;;;6276780;22;19995;-73
2023/09/06 12:09:15;;;;;;;9.68;2.05;;;16.40;74.60;;;;;;6302270;22;20014;-73
2023/09/06 12:11:43;;;;;;;11.35;2.22;;;16.40;74.70;;;;;;6276146;22;20080;-75
2023/09/06 12:14:11;;;;;;;9.05;2.13;;;16.40;74.40;;;;;;6302082;22;20357;-72
2023/09/06 12:16:38;;;;;;;9.52;1.92;;;16.40;74.40;;;;;;6274677;22;20421;-74
2023/09/06 12:19:10;;;;;;;11.52;2.13;;;16.40;74.40;;;;;;6275490;22;20307;-72
2023/09/06 12:21:38;;;;;;;12.45;2.83;;;16.40;74.20;;;;;;6302628;22;20074;-73
2023/09/06 12:24:05;;;;;;;9.65;2.00;;;16.40;74.40;;;;;;6302731;22;20004;-74
2023/09/06 12:26:34;;;;;;;7.22;1.95;;;16.30;74.30;;;;;;6303205;22;20078;-72
2023/09/06 12:29:01;;;;;;;9.48;1.77;;;16.30;74.40;;;;;;6302638;22;20078;-73
2023/09/06 12:31:28;;;;;;;12.95;1.95;;;16.30;74.40;;;;;;6275358;22;20015;-74
2023/09/06 12:33:56;;;;;;;12.40;2.08;;;16.30;74.50;;;;;;6300603;22;20082;-73
2023/09/06 12:36:23;;;;;;;9.48;2.80;;;16.20;74.70;;;;;;6303375;22;20330;-73
2023/09/06 12:38:52;;;;;;;9.18;2.08;;;16.20;74.80;;;;;;6305272;22;20007;-77
2023/09/06 12:41:19;;;;;;;8.32;1.95;;;16.20;74.90;;;;;;6277028;22;20007;-75
2023/09/06 12:43:46;;;;;;;10.80;1.85;;;16.10;75.10;;;;;;6280125;22;20011;-76
2023/09/06 12:46:13;;;;;;;8.93;1.90;;;16.00;75.20;;;;;;6307840;22;20015;-76
2023/09/06 12:48:44;;;;;;;7.93;1.60;;;16.00;75.40;;;;;;6306364;22;20303;-76
2023/09/06 12:51:12;;;;;;;13.38;2.50;;;16.00;75.50;;;;;;6308207;22;20038;-76
2023/09/06 12:53:39;;;;;;;9.50;2.03;;;16.00;75.50;;;;;;6307982;22;20031;-76
2023/09/06 12:56:11;;;;;;;14.50;2.60;;;16.00;75.60;;;;;;6308004;22;20006;-76
2023/09/06 12:58:39;;;;;;;10.75;1.88;;;15.90;75.50;;;;;;6281798;22;20003;-76
2023/09/06 13:01:10;;;;;;;9.82;1.95;;;15.90;75.60;;;;;;6307462;22;20064;-76
2023/09/06 13:03:37;;;;;;;8.05;2.03;;;15.80;75.70;;;;;;6308275;22;19999;-76
2023/09/06 13:06:05;;;;;;;9.88;2.33;;;15.80;75.80;;;;;;6307958;22;20007;-75
2023/09/06 13:08:34;;;;;;;10.10;2.28;;;15.80;75.90;;;;;;6307830;22;20006;-76
2023/09/06 13:11:01;;;;;;;11.23;2.20;;;15.80;75.80;;;;;;6308301;22;20361;-76
2023/09/06 13:13:28;;;;;;;7.40;1.67;;;15.70;76.10;;;;;;6307904;22;19999;-76
2023/09/06 13:15:55;;;;;;;10.85;2.38;;;15.70;76.30;;;;;;6307775;22;20418;-76
2023/09/06 13:18:23;;;;;;;10.23;2.25;;;15.70;76.40;;;;;;6307891;22;20063;-75
2023/09/06 13:20:56;;;;;;;11.65;2.42;;;15.70;76.40;;;;;;6307507;22;20384;-76
2023/09/06 13:23:23;;;;;;;10.55;2.25;;;15.70;76.50;;;;;;6281574;22;20426;-76
2023/09/06 13:25:51;;;;;;;9.02;2.10;;;15.60;76.70;;;;;;6307900;22;20509;-76
2023/09/06 13:28:18;;;;;;;7.63;2.40;;;15.50;76.80;;;;;;6307302;22;20007;-76
2023/09/06 13:30:45;;;;;;;10.27;2.38;;;15.50;77.20;;;;;;6307670;22;20456;-76
2023/09/06 13:33:12;;;;;;;10.77;2.50;;;15.40;77.20;;;;;;6307554;22;20005;-76
2023/09/06 13:35:39;;;;;;;12.45;3.05;;;15.40;77.20;;;;;;6280529;22;20026;-76
2023/09/06 13:38:07;;;;;;;10.68;3.80;;;15.40;77.20;;;;;;6307704;22;20064;-75
2023/09/06 13:40:34;;;;;;;15.45;4.53;;;15.40;77.10;;;;;;6307547;22;20006;-76
2023/09/06 13:43:01;;;;;;;14.75;5.10;;;15.40;77.00;;;;;;6307204;22;19999;-76
2023/09/06 13:45:29;;;;;;;13.32;5.72;;;15.30;77.10;;;;;;6280171;22;20457;-77
2023/09/06 13:47:56;;;;;;;21.27;7.35;;;15.30;77.30;;;;;;6307448;22;20003;-78
2023/09/06 13:50:23;;;;;;;20.27;7.28;;;15.30;77.30;;;;;;6307137;22;20481;-76
2023/09/06 13:52:51;;;;;;;22.83;8.65;;;15.30;77.30;;;;;;6307575;22;20082;-77
2023/09/06 13:55:18;;;;;;;21.15;8.77;;;15.30;77.20;;;;;;6280514;22;20003;-77
2023/09/06 13:57:45;;;;;;;18.60;8.13;;;15.30;77.30;;;;;;6307885;22;20011;-77
2023/09/06 14:00:13;;;;;;;23.52;9.32;;;15.30;77.40;;;;;;6307251;22;20095;-77
2023/09/06 14:02:40;;;;;;;28.33;9.55;;;15.20;77.70;;;;;;6308015;22;20304;-77
2023/09/06 14:05:08;;;;;;;21.25;9.95;;;15.20;77.70;;;;;;6308109;22;20079;-77
2023/09/06 14:07:35;;;;;;;27.35;10.48;;;15.20;77.80;;;;;;6307572;22;20469;-77
2023/09/06 14:10:03;;;;;;;23.38;10.98;;;15.20;77.80;;;;;;6306420;22;20006;-77
2023/09/06 14:12:31;;;;;;;24.88;11.50;;;15.20;77.70;;;;;;6306353;22;20495;-77
2023/09/06 14:14:58;;;;;;;25.13;12.20;;;15.10;77.80;;;;;;6306079;22;19999;-77
2023/09/06 14:17:25;;;;;;;27.88;11.65;;;15.10;77.70;;;;;;6306762;22;20010;-77
2023/09/06 14:19:53;;;;;;;33.35;12.52;;;15.00;77.80;;;;;;6305497;22;19996;-77
2023/09/06 14:22:20;;;;;;;26.60;13.18;;;15.00;77.90;;;;;;6305547;22;19999;-76
2023/09/06 14:24:47;;;;;;;26.42;11.40;;;14.90;77.90;;;;;;6306122;22;20038;-76
2023/09/06 14:27:16;;;;;;;28.88;12.05;;;15.00;78.10;;;;;;6307669;22;20240;-76
2023/09/06 14:29:43;;;;;;;24.13;12.50;;;14.90;78.20;;;;;;6306606;22;20007;-76
2023/09/06 14:32:11;;;;;;;29.27;12.98;;;14.80;78.50;;;;;;6307038;22;20021;-76
2023/09/06 14:34:39;;;;;;;30.58;13.60;;;14.80;78.80;;;;;;6307334;22;20002;-76
2023/09/06 14:37:06;;;;;;;31.35;13.10;;;14.80;78.60;;;;;;6254309;22;20326;-76
2023/09/06 14:39:34;;;;;;;26.33;12.18;;;14.90;78.60;;;;;;6307650;22;20483;-76
2023/09/06 14:42:01;;;;;;;30.45;13.30;;;14.80;78.60;;;;;;6254288;22;20007;-76
2023/09/06 14:44:28;;;;;;;27.10;12.38;;;14.80;78.50;;;;;;6278978;22;20009;-76
2023/09/06 14:46:56;;;;;;;26.95;12.98;;;14.80;78.60;;;;;;6305262;22;20019;-76
2023/09/06 14:49:23;;;;;;;30.55;13.45;;;14.80;78.70;;;;;;6277891;22;20003;-76
2023/09/06 14:51:50;;;;;;;26.55;12.82;;;14.80;78.70;;;;;;6305363;22;20011;-76
2023/09/06 14:54:17;;;;;;;32.83;13.48;;;14.80;78.90;;;;;;6304580;22;20102;-76
2023/09/06 14:56:44;;;;;;;28.25;14.18;;;14.70;78.80;;;;;;6251881;22;20023;-76
2023/09/06 14:59:12;;;;;;;26.35;13.85;;;14.70;78.80;;;;;;6305434;22;20006;-76
2023/09/06 15:01:39;;;;;;;34.50;14.30;;;14.60;79.10;;;;;;6278639;22;20003;-76
2023/09/06 15:04:06;;;;;;;28.88;14.80;;;14.60;79.00;;;;;;6307299;22;19999;-76
2023/09/06 15:06:33;;;;;;;27.45;14.50;;;14.60;78.90;;;;;;6279918;22;20000;-76
2023/09/06 15:09:02;;;;;;;27.80;14.68;;;14.50;79.30;;;;;;6306616;22;20083;-76
2023/09/06 15:11:29;;;;;;;28.95;14.13;;;14.50;79.40;;;;;;6279251;22;20015;-76
2023/09/06 15:13:56;;;;;;;25.88;14.32;;;14.40;79.60;;;;;;6280290;22;19999;-76
2023/09/06 15:16:27;;;;;;;29.08;14.00;;;14.50;79.90;;;;;;6308842;22;20023;-75
2023/09/06 15:18:54;;;;;;;25.58;12.40;;;14.40;80.00;;;;;;6280584;22;20000;-76
2023/09/06 15:21:21;;;;;;;27.27;13.68;;;14.40;80.60;;;;;;6306950;22;20010;-76
2023/09/06 15:23:48;;;;;;;24.05;13.60;;;14.40;80.20;;;;;;6279488;22;20003;-76
2023/09/06 15:26:17;;;;;;;27.08;12.90;;;14.30;80.50;;;;;;6307140;22;20007;-76
2023/09/06 15:28:45;;;;;;;29.00;13.60;;;14.30;80.80;;;;;;6307169;22;20078;-76
2023/09/06 15:31:13;;;;;;;28.65;12.23;;;14.20;80.90;;;;;;6306845;22;20003;-76
2023/09/06 15:33:41;;;;;;;32.33;13.57;;;14.20;81.00;;;;;;6279101;22;20414;-76
2023/09/06 15:36:08;;;;;;;26.70;13.43;;;14.20;81.10;;;;;;6306588;22;19999;-76
2023/09/06 15:38:39;;;;;;;26.40;13.05;;;14.20;81.30;;;;;;6306295;22;19999;-76
2023/09/06 15:41:11;;;;;;;29.58;12.93;;;14.10;81.30;;;;;;6279223;22;19995;-76
2023/09/06 15:43:41;;;;;;;25.30;13.60;;;14.10;81.30;;;;;;6306402;22;20502;-76
2023/09/06 15:46:08;;;;;;;27.17;13.45;;;14.10;81.40;;;;;;6279913;22;20019;-76
2023/09/06 15:48:37;;;;;;;31.73;13.65;;;14.10;81.60;;;;;;6254595;22;19999;-76
2023/09/06 15:51:08;;;;;;;23.98;13.05;;;14.10;81.70;;;;;;6306887;22;20052;-76
2023/09/06 15:53:34;;;;;;;;;;;14.10;81.60;;;;;;6280169;22;20414;-76
2023/09/06 15:56:01;;;;;;;27.13;13.88;;;14.10;81.60;;;;;;6279613;22;19907;-76
2023/09/06 15:58:29;;;;;;;32.47;14.48;;;14.20;81.30;;;;;;6306791;22;20003;-76
2023/09/06 16:00:56;;;;;;;28.77;15.88;;;14.20;81.20;;;;;;6279412;22;20064;-76
2023/09/06 16:03:23;;;;;;;29.88;15.63;;;14.20;80.90;;;;;;6306469;22;20469;-76
2023/09/06 16:05:51;;;;;;;30.23;15.38;;;14.20;80.80;;;;;;6254019;22;20441;-76
2023/09/06 16:08:19;;;;;;;37.08;15.60;;;14.20;80.70;;;;;;6306454;22;19999;-76
2023/09/06 16:10:46;;;;;;;33.72;14.77;;;14.20;80.70;;;;;;6306432;22;20418;-76
2023/09/06 16:13:13;;;;;;;32.67;14.45;;;14.20;80.60;;;;;;6279148;22;20007;-77
2023/09/06 16:15:41;;;;;;;28.17;14.23;;;14.20;80.70;;;;;;6306696;22;20002;-76
2023/09/06 16:18:08;;;;;;;24.85;13.00;;;14.20;80.70;;;;;;6306296;22;20003;-76
2023/09/06 16:20:37;;;;;;;28.40;13.98;;;14.20;80.70;;;;;;6306379;22;19999;-76
2023/09/06 16:23:04;;;;;;;31.80;15.15;;;14.20;80.70;;;;;;6279691;22;20015;-76
2023/09/06 16:25:37;;;;;;;33.75;14.65;;;14.20;80.80;;;;;;6279601;22;19999;-76
2023/09/06 16:28:05;;;;;;;33.38;15.38;;;14.30;80.40;;;;;;6280396;22;20003;-76
2023/09/06 16:30:34;;;;;;;31.58;16.02;;;14.30;80.40;;;;;;6228047;22;20030;-76
2023/09/06 16:33:02;;;;;;;34.33;14.43;;;14.20;80.20;;;;;;6279137;22;20011;-76
2023/09/06 16:35:29;;;;;;;40.97;14.80;;;14.20;80.50;;;;;;6278820;22;20029;-76
2023/09/06 16:37:58;;;;;;;34.65;14.85;;;14.20;80.60;;;;;;6279024;22;20078;-76
2023/09/06 16:40:25;;;;;;;34.25;14.70;;;14.20;80.40;;;;;;6279096;22;20003;-76
2023/09/06 16:42:53;;;;;;;36.97;15.23;;;14.20;80.40;;;;;;6279724;22;20014;-76
2023/09/06 16:45:20;;;;;;;29.80;14.70;;;14.20;80.70;;;;;;6304442;22;20012;-76
2023/09/06 16:47:47;;;;;;;34.35;15.77;;;14.10;80.80;;;;;;6305112;22;20360;-76
2023/09/06 16:50:15;;;;;;;33.40;16.05;;;14.20;81.00;;;;;;6278442;22;20008;-76
2023/09/06 16:52:42;;;;;;;31.70;15.20;;;14.20;80.80;;;;;;6305936;22;20038;-76
2023/09/06 16:55:09;;;;;;;32.13;15.38;;;14.10;80.70;;;;;;6305821;22;20011;-76
2023/09/06 16:57:38;;;;;;;30.40;14.68;;;14.20;80.80;;;;;;6306581;22;20003;-76
2023/09/06 17:00:07;;;;;;;31.52;14.60;;;14.10;80.70;;;;;;6278486;22;20003;-76
2023/09/06 17:02:35;;;;;;;30.23;14.75;;;14.00;80.80;;;;;;6306304;22;20003;-76
2023/09/06 17:05:04;;;;;;;26.67;14.38;;;14.00;80.90;;;;;;6278810;22;20003;-76
2023/09/06 17:07:35;;;;;;;34.97;15.00;;;14.00;81.10;;;;;;6306596;22;20003;-76
2023/09/06 17:10:07;;;;;;;27.80;14.77;;;14.00;81.20;;;;;;6305891;22;20017;-76
2023/09/06 17:12:35;;;;;;;24.30;13.35;;;13.90;81.20;;;;;;6305531;22;20018;-76
2023/09/06 17:15:05;;;;;;;27.42;13.93;;;14.00;81.40;;;;;;6253761;22;20333;-76
2023/09/06 17:17:33;;;;;;;30.42;14.98;;;13.90;81.50;;;;;;6306129;22;20141;-76
2023/09/06 17:20:00;;;;;;;27.88;14.45;;;13.90;81.50;;;;;;6279282;22;20011;-76
2023/09/06 17:22:28;;;;;;;30.67;15.82;;;13.70;81.20;;;;;;6279339;22;20001;-76
2023/09/06 17:24:59;;;;;;;37.65;15.35;;;13.70;81.30;;;;;;6280069;22;20110;-76
2023/09/06 17:27:30;;;;;;;30.10;13.57;;;13.60;81.70;;;;;;6281717;22;20426;-76
2023/09/06 17:29:58;;;;;;;;;;;13.60;82.00;;;;;;6281157;22;20007;-76
2023/09/06 17:32:29;;;;;;;27.00;13.95;;;13.60;82.20;;;;;;6308036;22;20367;-76
2023/09/06 17:34:57;;;;;;;31.50;14.85;;;13.60;82.00;;;;;;6256256;22;20080;-76
2023/09/06 17:37:24;;;;;;;30.52;14.95;;;13.50;82.00;;;;;;6307981;22;20089;-76